Terminal Aerodrome Forecast
Issued by NWS

Home | Current Version | Previous Version | Graphics & Text | Print | Product List | Glossary On
Versions: 1 2 3 4 5 6 7 8 9 10 11 12 13 14
000
FTUS43 KBIS 231731
TAFMOT
TAF
KMOT 231731Z 2318/2418 18005KT P6SM SCT100
     FM232000 14011KT P6SM SCT100
     FM240300 12010KT P6SM SCT035 BKN080
     FM241200 08008KT P6SM VCSH BKN035 OVC060=

USA.gov is the U.S. government's official web portal to all federal, state and local government web resources and services.